createdAt,value
2023-02-05T00:00:05.894Z,102919.22
2023-02-05T00:02:33.019Z,102910.75
2023-02-05T00:04:59.824Z,102915.69
2023-02-05T00:07:26.683Z,102882.63
2023-02-05T00:09:53.224Z,102884.31
2023-02-05T00:12:19.764Z,102882.94
2023-02-05T00:14:46.232Z,102910.88
2023-02-05T00:17:12.759Z,102904.22
2023-02-05T00:19:39.221Z,102877.53
2023-02-05T00:22:05.868Z,102872.31
2023-02-05T00:24:32.661Z,102851.81
2023-02-05T00:26:59.276Z,102880.69
2023-02-05T00:29:26.261Z,102837.03
2023-02-05T00:31:53.060Z,102847.22
2023-02-05T00:34:20.073Z,102864.47
2023-02-05T00:36:46.556Z,102844.13
2023-02-05T00:39:14.245Z,102850.06
2023-02-05T00:41:40.774Z,102860.13
2023-02-05T00:44:07.307Z,102838.38
2023-02-05T00:46:33.762Z,102863.19
2023-02-05T00:49:00.345Z,102855.69
2023-02-05T00:51:26.834Z,102854.56
2023-02-05T00:53:53.572Z,102831.38
2023-02-05T00:56:20.127Z,102834.84
2023-02-05T00:58:48.953Z,102830.84
2023-02-05T01:01:16.048Z,102825.66
2023-02-05T01:03:42.756Z,102813.59
2023-02-05T01:06:09.383Z,102817.88
2023-02-05T01:08:36.015Z,102813.59
2023-02-05T01:11:07.171Z,102810.78
2023-02-05T01:13:34.136Z,102808.44
2023-02-05T01:16:00.765Z,102778.25
2023-02-05T01:18:27.860Z,102770.97
2023-02-05T01:20:54.480Z,102755.25
2023-02-05T01:23:21.038Z,102804.19
2023-02-05T01:25:47.945Z,102803.75
2023-02-05T01:28:14.489Z,102773.22
2023-02-05T01:30:41.242Z,102764.78
2023-02-05T01:33:07.863Z,102774.16
2023-02-05T01:35:34.882Z,102732.13
2023-02-05T01:38:01.570Z,102745.56
2023-02-05T01:40:28.140Z,102782.69
2023-02-05T01:42:54.715Z,102787.59
2023-02-05T01:45:32.628Z,102804.34
2023-02-05T01:48:04.310Z,102799.97
2023-02-05T01:50:38.564Z,102796.34
2023-02-05T01:53:32.263Z,102804.44
2023-02-05T01:56:02.253Z,102802.03
2023-02-05T01:58:32.587Z,102793.75
2023-02-05T02:00:59.594Z,102768.59
2023-02-05T02:03:30.630Z,102792.88
2023-02-05T02:05:57.542Z,102782.31
2023-02-05T02:08:24.223Z,102771.78
2023-02-05T02:10:52.226Z,102765.63
2023-02-05T02:13:19.934Z,102755.91
2023-02-05T02:15:47.390Z,102752.94
2023-02-05T02:18:26.097Z,102745.47
2023-02-05T02:21:28.402Z,102774.66
2023-02-05T02:24:16.698Z,102776.84
2023-02-05T02:27:06.142Z,102770.56
2023-02-05T02:29:57.930Z,102742.66
2023-02-05T02:32:40.807Z,102765.06
2023-02-05T02:35:12.615Z,102768.13
2023-02-05T02:37:55.904Z,102773.00
2023-02-05T02:40:27.623Z,102742.41
2023-02-05T02:43:03.463Z,102778.41
2023-02-05T02:45:33.869Z,102758.59
2023-02-05T02:48:01.086Z,102777.03
2023-02-05T02:50:34.851Z,102784.16
2023-02-05T02:53:27.200Z,102773.72
2023-02-05T02:55:55.204Z,102759.63
2023-02-05T02:58:25.751Z,102736.09
2023-02-05T03:00:53.625Z,102754.22
2023-02-05T03:03:21.526Z,102752.03
2023-02-05T03:05:49.661Z,102761.16
2023-02-05T03:08:33.524Z,102763.28
2023-02-05T03:11:03.485Z,102732.47
2023-02-05T03:13:30.430Z,102706.50
2023-02-05T03:15:57.041Z,102719.78
2023-02-05T03:18:24.710Z,102742.41
2023-02-05T03:21:03.645Z,102716.75
2023-02-05T03:23:30.247Z,102726.19
2023-02-05T03:25:56.761Z,102727.78
2023-02-05T03:28:23.522Z,102700.25
2023-02-05T03:31:20.666Z,102686.72
2023-02-05T03:33:55.006Z,102696.63
2023-02-05T03:36:49.339Z,102712.44
2023-02-05T03:40:01.978Z,102710.72
2023-02-05T03:42:56.903Z,102712.44
2023-02-05T03:45:53.065Z,102720.19
2023-02-05T03:48:38.397Z,102713.81
2023-02-05T03:51:17.741Z,102700.06
2023-02-05T03:54:26.597Z,102709.09
2023-02-05T03:57:02.308Z,102716.31
2023-02-05T03:59:29.004Z,102673.81
2023-02-05T04:01:56.049Z,102698.09
2023-02-05T04:04:22.941Z,102650.16
2023-02-05T04:06:51.911Z,102698.97
2023-02-05T04:09:18.847Z,102701.47
2023-02-05T04:11:45.610Z,102696.53
2023-02-05T04:14:12.096Z,102683.34
2023-02-05T04:16:39.133Z,102697.22
2023-02-05T04:19:05.656Z,102684.28
2023-02-05T04:21:32.276Z,102709.22
2023-02-05T04:23:58.922Z,102711.47
2023-02-05T04:26:25.421Z,102693.56
2023-02-05T04:28:52.003Z,102721.56
2023-02-05T04:31:18.587Z,102711.06
2023-02-05T04:33:45.327Z,102730.41
2023-02-05T04:36:12.203Z,102727.88
2023-02-05T04:38:39.339Z,102713.38
2023-02-05T04:41:08.030Z,102725.53
2023-02-05T04:43:34.577Z,102722.06
2023-02-05T04:46:08.439Z,102730.94
2023-02-05T04:48:44.017Z,102728.09
2023-02-05T04:51:12.821Z,102734.78
2023-02-05T04:53:39.973Z,102724.63
2023-02-05T04:56:14.591Z,102708.22
2023-02-05T04:58:41.240Z,102683.06
2023-02-05T05:01:16.610Z,102719.59
2023-02-05T05:03:43.288Z,102704.09
2023-02-05T05:06:10.402Z,102708.47
2023-02-05T05:08:37.461Z,102728.06
2023-02-05T05:11:22.149Z,102732.47
2023-02-05T05:13:49.768Z,102703.25
2023-02-05T05:16:16.289Z,102722.88
2023-02-05T05:18:43.128Z,102726.84
2023-02-05T05:21:10.047Z,102721.47
2023-02-05T05:23:37.679Z,102715.19
2023-02-05T05:26:06.665Z,102704.78
2023-02-05T05:28:34.811Z,102693.03
2023-02-05T05:31:14.409Z,102689.06
2023-02-05T05:33:41.300Z,102649.34
2023-02-05T05:36:08.138Z,102684.13
2023-02-05T05:38:34.932Z,102674.25
2023-02-05T05:41:19.903Z,102676.31
2023-02-05T05:43:46.527Z,102657.53
2023-02-05T05:46:22.736Z,102644.00
2023-02-05T05:49:00.317Z,102667.69
2023-02-05T05:51:28.216Z,102672.00
2023-02-05T05:53:55.192Z,102679.06
2023-02-05T05:56:21.926Z,102672.97
2023-02-05T05:58:49.152Z,102673.13
2023-02-05T06:01:17.509Z,102662.31
2023-02-05T06:03:44.132Z,102677.28
2023-02-05T06:06:10.955Z,102671.69
2023-02-05T06:08:37.480Z,102647.09
2023-02-05T06:11:04.089Z,102667.66
2023-02-05T06:13:30.849Z,102687.19
2023-02-05T06:15:57.740Z,102689.13
2023-02-05T06:18:24.308Z,102679.13
2023-02-05T06:20:51.074Z,102686.50
2023-02-05T06:23:17.900Z,102673.25
2023-02-05T06:25:44.504Z,102669.81
2023-02-05T06:28:11.811Z,102673.84
2023-02-05T06:30:38.557Z,102659.38
2023-02-05T06:33:05.487Z,102661.59
2023-02-05T06:35:32.345Z,102658.72
2023-02-05T06:37:59.059Z,102682.25
2023-02-05T06:40:28.049Z,102641.72
2023-02-05T06:42:55.169Z,102677.78
2023-02-05T06:45:22.113Z,102667.78
2023-02-05T06:47:49.089Z,102661.16
2023-02-05T06:50:15.803Z,102666.19
2023-02-05T06:52:42.386Z,102667.88
2023-02-05T06:55:09.123Z,102658.63
2023-02-05T06:57:35.652Z,102633.19
2023-02-05T07:00:02.208Z,102644.22
2023-02-05T07:02:28.686Z,102614.84
2023-02-05T07:04:55.212Z,102642.91
2023-02-05T07:07:21.774Z,102609.00
2023-02-05T07:09:48.786Z,102640.75
2023-02-05T07:12:15.293Z,102634.00
2023-02-05T07:14:42.276Z,102643.53
2023-02-05T07:17:11.143Z,102645.28
2023-02-05T07:19:37.762Z,102615.88
2023-02-05T07:22:05.097Z,102643.66
2023-02-05T07:24:31.789Z,102568.94
2023-02-05T07:26:58.354Z,102632.41
2023-02-05T07:29:28.012Z,102628.69
2023-02-05T07:31:54.555Z,102620.94
2023-02-05T07:34:21.073Z,102626.47
2023-02-05T07:36:51.087Z,102621.38
2023-02-05T07:39:18.379Z,102610.09
2023-02-05T07:41:44.967Z,102623.56
2023-02-05T07:44:11.635Z,102623.56
2023-02-05T07:46:38.233Z,102623.97
2023-02-05T07:49:04.807Z,102627.31
2023-02-05T07:51:32.658Z,102625.53
2023-02-05T07:53:59.204Z,102612.25
2023-02-05T07:56:25.861Z,102629.81
2023-02-05T07:58:52.426Z,102609.03
2023-02-05T08:01:19.062Z,102634.16
2023-02-05T08:03:45.611Z,102634.75
2023-02-05T08:06:15.123Z,102613.22
2023-02-05T08:08:41.760Z,102627.03
2023-02-05T08:11:08.308Z,102639.47
2023-02-05T08:13:35.023Z,102635.25
2023-02-05T08:16:05.934Z,102635.63
2023-02-05T08:18:32.577Z,102635.38
2023-02-05T08:20:59.537Z,102628.75
2023-02-05T08:23:26.327Z,102633.75
2023-02-05T08:25:57.162Z,102634.00
2023-02-05T08:28:25.013Z,102613.16
2023-02-05T08:30:51.770Z,102622.41
2023-02-05T08:33:18.644Z,102628.31
2023-02-05T08:35:45.510Z,102628.97
2023-02-05T08:38:12.101Z,102629.38
2023-02-05T08:40:38.627Z,102615.06
2023-02-05T08:43:05.218Z,102585.53
2023-02-05T08:45:31.889Z,102560.41
2023-02-05T08:47:58.539Z,102626.63
2023-02-05T08:50:25.263Z,102617.59
2023-02-05T08:52:51.782Z,102626.38
2023-02-05T08:55:18.320Z,102590.75
2023-02-05T08:57:45.219Z,102619.25
2023-02-05T09:00:13.019Z,102613.69
2023-02-05T09:02:42.241Z,102617.19
2023-02-05T09:05:09.826Z,102585.53
2023-02-05T09:07:41.322Z,102589.59
2023-02-05T09:10:09.718Z,102593.69
2023-02-05T09:12:36.555Z,102576.88
2023-02-05T09:15:03.264Z,102580.50
2023-02-05T09:17:29.856Z,102593.88
2023-02-05T09:19:56.649Z,102599.09
2023-02-05T09:22:23.285Z,102611.38
2023-02-05T09:24:49.874Z,102572.00
2023-02-05T09:27:16.350Z,102610.59
2023-02-05T09:29:42.909Z,102573.59
2023-02-05T09:32:09.626Z,102615.94
2023-02-05T09:34:36.189Z,102614.19
2023-02-05T09:37:02.958Z,102582.19
2023-02-05T09:40:17.313Z,102624.72
2023-02-05T09:42:33.042Z,102638.69
2023-02-05T09:45:38.162Z,102631.34
2023-02-05T09:48:08.746Z,102651.72
2023-02-05T09:50:36.596Z,102625.44
2023-02-05T09:53:06.577Z,102645.44
2023-02-05T09:55:36.626Z,102616.72
2023-02-05T09:58:07.275Z,102651.47
2023-02-05T10:01:01.780Z,102656.91
2023-02-05T10:03:34.320Z,102648.31
2023-02-05T10:06:03.934Z,102661.59
2023-02-05T10:08:41.010Z,102648.84
2023-02-05T10:11:18.508Z,102656.13
2023-02-05T10:13:47.510Z,102656.28
2023-02-05T10:16:20.025Z,102652.72
2023-02-05T10:19:13.421Z,102653.28
2023-02-05T10:22:00.656Z,102655.53
2023-02-05T10:24:49.035Z,102667.84
2023-02-05T10:27:26.857Z,102651.97
2023-02-05T10:30:04.054Z,102659.69
2023-02-05T10:32:52.955Z,102625.91
2023-02-05T10:35:33.347Z,102657.41
2023-02-05T10:38:01.168Z,102654.22
2023-02-05T10:40:31.252Z,102643.41
2023-02-05T10:43:05.649Z,102657.34
2023-02-05T10:45:36.617Z,102617.50
2023-02-05T10:48:09.520Z,102651.28
2023-02-05T10:51:01.687Z,102650.22
2023-02-05T10:53:29.068Z,102655.94
2023-02-05T10:55:57.601Z,102655.63
2023-02-05T10:58:37.030Z,102658.94
2023-02-05T11:01:05.467Z,102656.75
2023-02-05T11:03:33.202Z,102633.53
2023-02-05T11:05:59.691Z,102650.44
2023-02-05T11:08:45.160Z,102668.38
2023-02-05T11:11:31.720Z,102666.50
2023-02-05T11:14:06.402Z,102666.78
2023-02-05T11:16:41.623Z,102655.88
2023-02-05T11:19:24.067Z,102664.09
2023-02-05T11:21:56.722Z,102664.44
2023-02-05T11:24:33.895Z,102665.59
2023-02-05T11:27:33.800Z,102664.09
2023-02-05T11:30:28.639Z,102621.22
2023-02-05T11:33:16.413Z,102651.28
2023-02-05T11:35:56.271Z,102654.78
2023-02-05T11:38:35.076Z,102653.19
2023-02-05T11:41:05.708Z,102644.53
2023-02-05T11:43:38.230Z,102646.06
2023-02-05T11:46:08.518Z,102617.72
2023-02-05T11:48:57.414Z,102649.50
2023-02-05T11:51:36.171Z,102646.41
2023-02-05T11:54:10.537Z,102657.00
2023-02-05T11:56:37.039Z,102647.50
2023-02-05T11:59:18.475Z,102638.50
2023-02-05T12:01:45.797Z,102667.63
2023-02-05T12:04:12.487Z,102671.03
2023-02-05T12:06:44.927Z,102672.72
2023-02-05T12:09:14.736Z,102649.94
2023-02-05T12:12:06.653Z,102656.22
2023-02-05T12:14:40.771Z,102650.63
2023-02-05T12:17:22.554Z,102693.81
2023-02-05T12:19:55.102Z,102693.19
2023-02-05T12:23:00.095Z,102704.66
2023-02-05T12:25:30.137Z,102702.00
2023-02-05T12:28:30.271Z,102696.75
2023-02-05T12:31:22.269Z,102697.69
2023-02-05T12:34:07.704Z,102697.13
2023-02-05T12:36:47.114Z,102705.69
2023-02-05T12:39:36.097Z,102720.63
2023-02-05T12:42:24.565Z,102713.72
2023-02-05T12:45:06.402Z,102724.50
2023-02-05T12:47:45.021Z,102720.25
2023-02-05T12:50:45.968Z,102721.09
2023-02-05T12:53:28.216Z,102684.06
2023-02-05T12:56:03.990Z,102721.44
2023-02-05T12:58:37.661Z,102679.28
2023-02-05T13:01:09.059Z,102708.28
2023-02-05T13:03:39.129Z,102711.59
2023-02-05T13:06:26.894Z,102724.41
2023-02-05T13:08:58.659Z,102725.78
2023-02-05T13:11:39.529Z,102727.69
2023-02-05T13:14:14.186Z,102718.69
2023-02-05T13:16:56.461Z,102718.28
2023-02-05T13:19:30.916Z,102735.56
2023-02-05T13:22:18.004Z,102736.31
2023-02-05T13:25:11.397Z,102742.06
2023-02-05T13:28:02.129Z,102728.22
2023-02-05T13:30:35.309Z,102749.09
2023-02-05T13:33:05.448Z,102728.88
2023-02-05T13:35:40.211Z,102745.34
2023-02-05T13:38:35.553Z,102770.56
2023-02-05T13:41:36.953Z,102777.69
2023-02-05T13:44:31.372Z,102785.81
2023-02-05T13:47:18.187Z,102796.78
2023-02-05T13:49:59.153Z,102792.34
2023-02-05T13:52:53.269Z,102802.38
2023-02-05T13:55:24.973Z,102776.16
2023-02-05T13:58:11.870Z,102797.53
2023-02-05T14:00:41.324Z,102805.25
2023-02-05T14:03:09.754Z,102824.31
2023-02-05T14:05:38.392Z,102806.28
2023-02-05T14:08:05.897Z,102803.19
2023-02-05T14:10:40.151Z,102788.91
2023-02-05T14:13:34.260Z,102838.47
2023-02-05T14:16:26.099Z,102837.94
2023-02-05T14:19:02.131Z,102838.81
2023-02-05T14:21:31.894Z,102851.53
2023-02-05T14:24:35.858Z,102858.47
2023-02-05T14:27:02.414Z,102855.25
2023-02-05T14:29:47.102Z,102862.31
2023-02-05T14:32:39.091Z,102870.28
2023-02-05T14:35:05.724Z,102873.19
2023-02-05T14:37:40.968Z,102870.16
2023-02-05T14:40:23.041Z,102877.19
2023-02-05T14:42:57.098Z,102890.31
2023-02-05T14:45:29.058Z,102862.59
2023-02-05T14:47:56.498Z,102863.38
2023-02-05T14:50:28.773Z,102899.25
2023-02-05T14:53:03.200Z,102866.22
2023-02-05T14:55:36.283Z,102864.72
2023-02-05T14:58:05.971Z,102875.75
2023-02-05T15:00:32.610Z,102903.75
2023-02-05T15:03:05.328Z,102897.88
2023-02-05T15:05:41.232Z,102898.66
2023-02-05T15:08:36.505Z,102891.66
2023-02-05T15:11:21.960Z,102904.72
2023-02-05T15:14:19.696Z,102898.47
2023-02-05T15:16:47.290Z,102892.56
2023-02-05T15:19:15.656Z,102872.34
2023-02-05T15:21:51.185Z,102903.97
2023-02-05T15:24:24.914Z,102884.44
2023-02-05T15:27:07.686Z,102906.47
2023-02-05T15:29:38.249Z,102907.03
2023-02-05T15:32:19.437Z,102920.91
2023-02-05T15:34:52.651Z,102922.97
2023-02-05T15:37:25.879Z,102923.66
2023-02-05T15:40:11.250Z,102928.56
2023-02-05T15:42:39.965Z,102929.69
2023-02-05T15:45:44.818Z,102930.50
2023-02-05T15:48:12.959Z,102936.66
2023-02-05T15:50:47.721Z,102931.28
2023-02-05T15:53:33.143Z,102945.53
2023-02-05T15:56:12.793Z,102946.09
2023-02-05T15:58:46.183Z,102923.94
2023-02-05T16:01:22.534Z,102949.13
2023-02-05T16:03:49.302Z,102953.84
2023-02-05T16:06:20.739Z,102960.31
2023-02-05T16:08:48.657Z,102965.22
2023-02-05T16:11:33.064Z,102974.06
2023-02-05T16:14:10.653Z,102973.13
2023-02-05T16:16:40.470Z,102932.53
2023-02-05T16:19:15.150Z,102944.19
2023-02-05T16:21:49.376Z,102978.59
2023-02-05T16:24:26.663Z,102981.50
2023-02-05T16:27:01.057Z,102987.94
2023-02-05T16:29:46.118Z,102981.91
2023-02-05T16:32:42.392Z,102980.38
2023-02-05T16:35:40.771Z,102984.34
2023-02-05T16:38:14.698Z,102942.50
2023-02-05T16:40:43.716Z,102991.66
2023-02-05T16:43:30.832Z,102982.88
2023-02-05T16:46:06.732Z,102998.88
2023-02-05T16:48:36.940Z,103006.28
2023-02-05T16:51:04.399Z,102986.25
2023-02-05T16:53:33.714Z,103002.59
2023-02-05T16:56:22.205Z,103011.69
2023-02-05T16:58:51.925Z,103017.34
2023-02-05T17:01:27.840Z,103010.78
2023-02-05T17:03:55.256Z,103030.72
2023-02-05T17:06:22.469Z,103006.22
2023-02-05T17:08:55.176Z,103025.91
2023-02-05T17:11:48.080Z,103025.25
2023-02-05T17:14:29.939Z,102999.22
2023-02-05T17:17:00.995Z,103022.09
2023-02-05T17:19:32.463Z,103036.31
2023-02-05T17:22:14.479Z,103043.72
2023-02-05T17:24:47.955Z,103049.06
2023-02-05T17:27:33.301Z,103028.91
2023-02-05T17:30:00.915Z,103045.91
2023-02-05T17:32:28.461Z,103047.41
2023-02-05T17:34:55.305Z,103032.13
2023-02-05T17:37:21.943Z,103066.97
2023-02-05T17:39:49.835Z,103066.34
2023-02-05T17:42:22.144Z,103074.81
2023-02-05T17:44:49.448Z,103076.47
2023-02-05T17:47:16.511Z,103079.38
2023-02-05T17:49:43.352Z,103078.94
2023-02-05T17:52:10.389Z,103092.75
2023-02-05T17:54:36.939Z,103087.69
2023-02-05T17:57:22.268Z,103099.28
2023-02-05T17:59:49.288Z,103106.53
2023-02-05T18:02:16.621Z,103112.22
2023-02-05T18:04:44.818Z,103110.59
2023-02-05T18:07:58.051Z,103112.41
2023-02-05T18:10:28.197Z,103111.31
2023-02-05T18:12:56.085Z,103118.84
2023-02-05T18:15:23.857Z,103121.97
2023-02-05T18:17:50.879Z,103085.41
2023-02-05T18:20:19.672Z,103121.22
2023-02-05T18:22:47.682Z,103109.41
2023-02-05T18:25:14.306Z,103102.44
2023-02-05T18:27:40.876Z,103117.34
2023-02-05T18:30:08.379Z,103088.22
2023-02-05T18:32:34.912Z,103111.47
2023-02-05T18:35:01.457Z,103136.16
2023-02-05T18:37:28.058Z,103135.25
2023-02-05T18:39:54.804Z,103118.53
2023-02-05T18:42:22.321Z,103131.56
2023-02-05T18:44:49.227Z,103136.53
2023-02-05T18:47:15.798Z,103143.72
2023-02-05T18:49:42.405Z,103106.41
2023-02-05T18:52:10.252Z,103118.59
2023-02-05T18:54:36.848Z,103134.44
2023-02-05T18:57:03.605Z,103119.50
2023-02-05T18:59:30.141Z,103143.53
2023-02-05T19:01:56.894Z,103154.03
2023-02-05T19:04:24.795Z,103152.91
2023-02-05T19:06:54.928Z,103123.31
2023-02-05T19:09:23.002Z,103153.59
2023-02-05T19:11:50.143Z,103134.03
2023-02-05T19:14:19.243Z,103167.41
2023-02-05T19:16:47.180Z,103173.72
2023-02-05T19:19:20.165Z,103184.03
2023-02-05T19:21:49.032Z,103149.53
2023-02-05T19:24:17.357Z,103188.03
2023-02-05T19:26:44.206Z,103180.50
2023-02-05T19:29:16.381Z,103188.97
2023-02-05T19:31:44.362Z,103200.78
2023-02-05T19:34:11.688Z,103212.41
2023-02-05T19:36:38.901Z,103180.63
2023-02-05T19:39:07.371Z,103196.69
2023-02-05T19:41:35.494Z,103204.94
2023-02-05T19:44:04.722Z,103200.66
2023-02-05T19:46:34.998Z,103209.66
2023-02-05T19:49:07.111Z,103214.06
2023-02-05T19:51:34.167Z,103207.28
2023-02-05T19:54:03.121Z,103145.41
2023-02-05T19:56:30.519Z,103219.00
2023-02-05T19:58:57.163Z,103220.22
2023-02-05T20:01:26.707Z,103209.56
2023-02-05T20:03:58.568Z,103233.44
2023-02-05T20:06:28.072Z,103213.25
2023-02-05T20:08:55.040Z,103213.91
2023-02-05T20:11:21.663Z,103209.16
2023-02-05T20:13:48.407Z,103229.94
2023-02-05T20:16:18.522Z,103233.53
2023-02-05T20:18:45.535Z,103237.22
2023-02-05T20:21:14.533Z,103235.84
2023-02-05T20:23:42.697Z,103245.13
2023-02-05T20:26:10.497Z,103239.44
2023-02-05T20:29:00.631Z,103191.19
2023-02-05T20:31:35.396Z,103248.72
2023-02-05T20:34:09.432Z,103210.78
2023-02-05T20:36:36.840Z,103243.00
2023-02-05T20:39:06.220Z,103251.34
2023-02-05T20:41:33.680Z,103263.50
2023-02-05T20:44:03.412Z,103267.63
2023-02-05T20:46:30.960Z,103233.41
2023-02-05T20:48:58.855Z,103269.97
2023-02-05T20:51:25.386Z,103241.81
2023-02-05T20:53:56.998Z,103226.72
2023-02-05T20:56:24.894Z,103243.25
2023-02-05T20:58:51.957Z,103252.09
2023-02-05T21:01:20.833Z,103213.53
2023-02-05T21:03:50.354Z,103237.59
2023-02-05T21:06:18.377Z,103255.00
2023-02-05T21:08:46.557Z,103262.69
2023-02-05T21:11:16.573Z,103252.38
2023-02-05T21:13:44.980Z,103281.63
2023-02-05T21:16:18.003Z,103284.09
2023-02-05T21:18:47.600Z,103254.47
2023-02-05T21:21:24.416Z,103272.16
2023-02-05T21:23:59.391Z,103276.41
2023-02-05T21:26:31.340Z,103276.53
2023-02-05T21:29:04.917Z,103286.97
2023-02-05T21:31:35.288Z,103257.72
2023-02-05T21:34:02.619Z,103274.63
2023-02-05T21:36:29.687Z,103270.25
2023-02-05T21:38:56.708Z,103293.19
2023-02-05T21:41:23.489Z,103262.38
2023-02-05T21:43:57.547Z,103301.22
2023-02-05T21:46:25.490Z,103265.47
2023-02-05T21:48:54.304Z,103320.22
2023-02-05T21:51:24.446Z,103297.31
2023-02-05T21:53:57.094Z,103318.13
2023-02-05T21:56:25.430Z,103310.00
2023-02-05T21:58:51.963Z,103320.22
2023-02-05T22:01:21.399Z,103319.16
2023-02-05T22:03:52.870Z,103317.19
2023-02-05T22:06:20.214Z,103311.44
2023-02-05T22:08:48.227Z,103317.97
2023-02-05T22:11:15.081Z,103318.25
2023-02-05T22:13:43.410Z,103334.56
2023-02-05T22:16:11.742Z,103326.50
2023-02-05T22:18:38.413Z,103324.59
2023-02-05T22:21:06.843Z,103327.00
2023-02-05T22:23:33.388Z,103287.28
2023-02-05T22:26:00.078Z,103326.56
2023-02-05T22:28:26.775Z,103337.19
2023-02-05T22:31:06.712Z,103322.84
2023-02-05T22:33:36.669Z,103330.78
2023-02-05T22:36:03.844Z,103311.69
2023-02-05T22:38:32.174Z,103338.78
2023-02-05T22:40:59.418Z,103314.31
2023-02-05T22:43:27.354Z,103334.34
2023-02-05T22:45:53.849Z,103341.59
2023-02-05T22:48:20.439Z,103346.91
2023-02-05T22:50:47.450Z,103335.81
2023-02-05T22:53:13.991Z,103350.63
2023-02-05T22:55:40.510Z,103353.47
2023-02-05T22:58:07.400Z,103348.31
2023-02-05T23:00:34.280Z,103336.69
2023-02-05T23:03:01.008Z,103353.06
2023-02-05T23:05:31.403Z,103333.31
2023-02-05T23:07:58.551Z,103349.19
2023-02-05T23:10:25.047Z,103356.25
2023-02-05T23:12:51.527Z,103342.13
2023-02-05T23:15:18.151Z,103324.00
2023-02-05T23:17:44.648Z,103357.81
2023-02-05T23:20:11.714Z,103358.66
2023-02-05T23:22:38.238Z,103368.25
2023-02-05T23:25:05.611Z,103371.28
2023-02-05T23:27:33.450Z,103371.16
2023-02-05T23:30:00.213Z,103368.69
2023-02-05T23:32:26.828Z,103346.00
2023-02-05T23:34:53.413Z,103353.81
2023-02-05T23:37:20.099Z,103373.13
2023-02-05T23:39:46.621Z,103374.16
2023-02-05T23:42:13.136Z,103350.59
2023-02-05T23:44:39.633Z,103374.16
2023-02-05T23:47:06.131Z,103372.41
2023-02-05T23:49:32.606Z,103376.94
2023-02-05T23:51:59.177Z,103371.69
2023-02-05T23:54:26.290Z,103372.75
2023-02-05T23:56:52.938Z,103387.53
2023-02-05T23:59:19.492Z,103364.16
